Lansing, MI

5:24 PM EDT on May 22, 2017 (GMT -0400)
Westside Neighborhood | | Change Station

Elev 0 ft 42.73 °N, 84.57 °W | Updated 8 seconds ago

Clear
Clear
71.9 °F
Feels Like 77 °F
N
2.0
Wind Variable Wind from SW

Today
High -- | Low -- °F
--% Chance of Precip.
Yesterday
High -- | Low -- °F
Precip. -- in
Pressure 29.96 in
Visibility 10.0 miles
Clouds Clear
Heat Index 77 °F
Dew Point 48 °F
Humidity 44%
Rainfall 0.00 in
Snow Depth Not available.
6:09 AM 9:01 PM
Waning Crescent, 12% visible
METAR KLAN 222053Z 27018G23KT 10SM CLR 20/06 A2996 RMK AO2 SLP145 T02000056 55003
Pressure 29.96 in
Visibility 10.0 miles
Clouds Clear
Heat Index 77 °F
Dew Point 48 °F
Humidity 44%
Rainfall 0.00 in
Snow Depth Not available.
6:09 AM 9:01 PM
Waning Crescent, 12% visible
METAR KLAN 222053Z 27018G23KT 10SM CLR 20/06 A2996 RMK AO2 SLP145 T02000056 55003

Get Your Daily Forecast Email!

Thanks for signing up!

Be on the lookout for a verification email in your inbox.

You'll start receiving severe weather alerts in your inbox..

×

10-Day Weather Forecast

Almanac

Astronomy

May. 22, 2017 Rise Set
Actual Time
Civil Twilight
Nautical Twilight
Astronomical Twilight
Moon
Length of Visible Light
Length of Day
Tomorrow will be .
, % of the Moon is Illuminated

Today's Extremes

State Highs State Lows

Community

WunderPhotos

Category 6

Welcome to Category 6. This is the collective home for Weather Underground's featured writeups by Dr. Jeff Masters (right), Bob Henson (left), Chris Burt, and other regular contributors.

Nearby

Air Quality

  Air Quality AQ Index Pollutant
Not available.

Snow Depth

Station Depth Elevation

Earthquake Activity

City Distance Mag. Time & Date
Minimum magnitude displayed is 2.5.

Coastal Water Temperatures

Place Temperature

Stations

Nearby Weather Stations

Station Location Temp. Windchill Dew Point Humidity Wind Precip. Elev Updated Type
                   

Watches & Warnings

Flood Advisory
Issued: 11:15 AM EDT May. 22, 2017 – National Weather Service

The flood advisory is extended for
the Sycamore Creek at Holt
* until Tuesday afternoon.
* At 10 PM Sunday the stage was 7.0 feet.
* Bankfull stage is 6.0 feet.
* Flood stage is 8.0 feet.
* Forecast, the river will continue to fall.
* Impact, at 8.0 feet... expect minor flooding of low lying areas
adjacent to the river, in the Lansing Municipal Golf course and
sections of east Mt. Hope Road.


Lat... Lon 4271 8451 4268 8449 4264 8445 4264 8451
      4268 8455 4271 8455


63